This is the latest recevied weather packets stored in our database for station/object HK4LRM-13. If no packets are shown the sender has not sent any weather packets the latest 10 day(s).
| Time | Temp. | Humidity | Pressure | Rain* | Wind** | Luminosity | Snow |
|---|---|---|---|---|---|---|---|
| 1777489999 | 22.22° C | 74% | 1009 hPa | 0 mm | - | - | - |
| 1777489457 | 22.22° C | 74% | 1009 hPa | 0 mm | - | - | - |
| 1777488917 | 22.22° C | 74% | 1009 hPa | 0 mm | - | - | - |
| 1777488376 | 22.22° C | 74% | 1009 hPa | 0 mm | - | - | - |
| 1777487836 | 22.22° C | 75% | 1009 hPa | 0 mm | - | - | - |
| 1777487295 | 22.22° C | 75% | 1010 hPa | 0 mm | - | - | - |
| 1777486755 | 21.67° C | 76% | 1010 hPa | 0 mm | - | - | - |
| 1777486214 | 21.67° C | 77% | 1011 hPa | 0 mm | - | - | - |
| 1777485673 | 21.67° C | 77% | 1011 hPa | 0 mm | - | - | - |
| 1777485132 | 21.67° C | 77% | 1011 hPa | 0 mm | - | - | - |
| 1777484591 | 21.67° C | 77% | 1011 hPa | 0 mm | - | - | - |
| 1777484051 | 21.67° C | 78% | 1011 hPa | 0 mm | - | - | - |
| 1777483509 | 21.11° C | 79% | 1012 hPa | 0 mm | - | - | - |
| 1777482969 | 20.56° C | 81% | 1013 hPa | 0 mm | - | - | - |
| 1777482428 | 20° C | 84% | 1013 hPa | 0 mm | - | - | - |
| 1777481886 | 20.56° C | 82% | 1013 hPa | 0 mm | - | - | - |
| 1777481345 | 20.56° C | 82% | 1013 hPa | 0 mm | - | - | - |
| 1777480804 | 19.44° C | 83% | 1013 hPa | 0 mm | - | - | - |
| 1777480264 | 19.44° C | 82% | 1014 hPa | 0 mm | - | - | - |
| 1777479723 | 19.44° C | 81% | 1014 hPa | 0 mm | - | - | - |
| 1777479183 | 20° C | 80% | 1014 hPa | 0 mm | - | - | - |
| 1777478642 | 20.56° C | 78% | 1014 hPa | 0 mm | - | - | - |
| 1777478101 | 20.56° C | 78% | 1014 hPa | 0 mm | - | - | - |
| 1777477560 | 20° C | 78% | 1014 hPa | 0 mm | - | - | - |
| 1777477018 | 20° C | 78% | 1014 hPa | 0 mm | - | - | - |
* Rain latest hour (hover to see other rain measurements)
** Current wind speed in m/s (hover to see current wind gust speed)